Cornell, Iowa
Current Conditions -  °F | °C
As of 4:26 AM on Thursday 29 Jan 2015 (Local Time) from KSPW Reporting Station
Overcast Overcast  
Wind Chill: 20°   Ceiling: 1500
Heat Index: 33°   Visibility: 10mi
Dew Point: 28°   Wind: 26mph
Humidity: 82%   Direction: 320°NW
Pressure: 30.07"   Gusts: 39mph
Location:  42.9244°N, 95.1316°W
Report Text: KSPW 291026Z AUTO 32023G34KT 10SM OVC015 01/M02 A3007 RMK AO2 PK WND 33037/1011 T00061022 TSNO
Loading
Personal Weather Stations






























Interactive Weather Map New forecast layout! Learn more

10-Day Weather Forecast

Advertisements
Track Severe Weather on mobile